This is the latest recevied weather packets stored in our database for station/object LZ1HCO-25. If no packets are shown the sender has not sent any weather packets the latest 10 day(s).
| Time | Temp. | Humidity | Pressure | Rain* | Wind** | Luminosity | Snow |
|---|---|---|---|---|---|---|---|
| 1777884113 | 21.11° C | 51% | 972 hPa | - | - | 0 W/m² | - |
| 1777883801 | 20.56° C | 51% | 972 hPa | - | - | 0 W/m² | - |
| 1777883490 | 21.11° C | 48% | 972 hPa | - | - | 0 W/m² | - |
| 1777883179 | 20.56° C | 51% | 972 hPa | - | - | 0 W/m² | - |
| 1777882867 | 20.56° C | 52% | 972 hPa | - | - | 0 W/m² | - |
| 1777882556 | 21.11° C | 50% | 972 hPa | - | - | 0 W/m² | - |
| 1777882244 | 19.44° C | 51% | 972 hPa | - | - | 0 W/m² | - |
| 1777881933 | 20° C | 51% | 972 hPa | - | - | 0 W/m² | - |
| 1777881622 | 19.44° C | 51% | 972 hPa | - | - | 0 W/m² | - |
| 1777881310 | 18.89° C | 51% | 972 hPa | - | - | 0 W/m² | - |
| 1777880999 | 20° C | 47% | 972 hPa | - | - | 0 W/m² | - |
| 1777880688 | 19.44° C | 48% | 972 hPa | - | - | 0 W/m² | - |
| 1777880376 | 20° C | 49% | 972 hPa | - | - | 0 W/m² | - |
| 1777880065 | 18.89° C | 51% | 972 hPa | - | - | 0 W/m² | - |
| 1777879754 | 19.44° C | 50% | 972 hPa | - | - | 0 W/m² | - |
| 1777879442 | 18.89° C | 53% | 972 hPa | - | - | 0 W/m² | - |
| 1777879131 | 18.89° C | 53% | 972 hPa | - | - | 0 W/m² | - |
| 1777878820 | 18.33° C | 54% | 972 hPa | - | - | 0 W/m² | - |
| 1777878508 | 17.78° C | 53% | 972 hPa | - | - | 0 W/m² | - |
| 1777878197 | 17.78° C | 55% | 972 hPa | - | - | 0 W/m² | - |
| 1777877885 | 17.78° C | 55% | 972 hPa | - | - | 0 W/m² | - |
| 1777877574 | 17.22° C | 55% | 972 hPa | - | - | 0 W/m² | - |
| 1777877263 | 17.22° C | 60% | 972 hPa | - | - | 0 W/m² | - |
| 1777876951 | 16.67° C | 59% | 972 hPa | - | - | 0 W/m² | - |
| 1777876640 | 15.56° C | 67% | 972 hPa | - | - | 0 W/m² | - |
* Rain since midnight (hover to see other rain measurements)
** Current wind speed in m/s (hover to see current wind gust speed)